METAR Data
IDs: Format: Raw Decoded Include TAF

Data at: 1506 UTC 27 Nov 2021

EGCN 271450Z 33021KT 9000 -RA SCT013 BKN018 BKN025 03/01 Q1003